Jork Reliance — V2CL2 — position and weather

sailwx.info

Track history (hours):
 
Tides and Currents Weather Stations Pressure Air Temp Water Temp Dewpoint Dewpoint Depression Visibility Wind Speed Wind Dir Waves Ship Positions

Jork Reliance

Last reported at 2015-Mar-01 19:34 UTC. Time now 2015-Mar-04 04:22 UTC.
Position N 49°40' W 000°35'.

Length 141 m; draft 6.8 m.

Type: Ship (hazmat cat A). MMSI: 305033000.

Date/timePositionNaut miles runAvg speedWind from/ knotsBaromVisibWave heightAir tempDewpointWater temp
2015-Mar-01 19:34N 49°40' W 000°35'1111.0
2015-Mar-01 18:34N 49°35' W 000°19'1111.2
2015-Mar-01 17:34N 49°32' W 000°03'9 9.3
2015-Mar-01 16:33N 49°28' E 000°10'0 0.0
2015-Mar-01 15:31N 49°28' E 000°10'0 0.0
2015-Mar-01 14:31N 49°28' E 000°10'0 0.0
2015-Mar-01 13:31N 49°28' E 000°10'0 0.0
2015-Mar-01 12:31N 49°28' E 000°10'0 0.0
2015-Mar-01 11:31N 49°28' E 000°10'0 0.0
2015-Mar-01 10:31N 49°28' E 000°10'0 0.0
2015-Mar-01 09:31N 49°28' E 000°10'0 0.0
2015-Mar-01 08:31N 49°28' E 000°10'0 0.0
2015-Mar-01 07:31N 49°28' E 000°10'0 0.0
2015-Mar-01 06:31N 49°28' E 000°10'0 0.0
2015-Mar-01 05:31N 49°28' E 000°10'0 0.0
2015-Mar-01 04:28N 49°28' E 000°10'0 0.0
2015-Mar-01 03:31N 49°28' E 000°10'0 0.0
2015-Mar-01 02:31N 49°28' E 000°10'0 0.0
2015-Mar-01 01:31N 49°28' E 000°10'0 0.0
2015-Mar-01 00:31N 49°28' E 000°10'0 0.0
2015-Feb-28 23:31N 49°28' E 000°10'0 0.0
2015-Feb-28 22:31N 49°28' E 000°10'0 0.0
2015-Feb-28 21:32N 49°28' E 000°10'3 2.6
2015-Feb-28 20:33N 49°28' E 000°06'1 1.2
2015-Feb-28 19:31N 49°28' E 000°08'0 0.0
2015-Feb-28 18:31N 49°28' E 000°08'0 0.0
2015-Feb-28 17:31N 49°28' E 000°08'0 0.0
2015-Feb-28 16:31N 49°28' E 000°08'0 0.0
2015-Feb-28 15:31N 49°28' E 000°08'0 0.0
2015-Feb-28 14:31N 49°28' E 000°08'0 0.0
2015-Feb-28 13:31N 49°28' E 000°08'0 0.0
2015-Feb-28 12:31N 49°28' E 000°08'0 0.0
2015-Feb-28 11:31N 49°28' E 000°08'0 0.0
2015-Feb-28 10:31N 49°28' E 000°08'0 0.0
2015-Feb-28 09:31N 49°28' E 000°08'0 0.0
2015-Feb-28 08:31N 49°28' E 000°08'0 0.0
2015-Feb-28 07:31N 49°28' E 000°08'0 0.0
2015-Feb-28 06:31N 49°28' E 000°08'0 0.0
2015-Feb-28 05:31N 49°28' E 000°08'0 0.0
2015-Feb-28 04:31N 49°28' E 000°08'0 0.0
2015-Feb-28 03:31N 49°28' E 000°08'7 7.3
2015-Feb-28 02:34N 49°30' W 000°02'1010.3
2015-Feb-28 01:33N 49°38' W 000°12'1111.4
2015-Feb-28 00:33N 49°50' W 000°12'37 7.0
2015-Feb-27 19:16N 50°26' W 000°03'1012.1
2015-Feb-27 18:25N 50°31' E 000°11'1011.7
2015-Feb-27 17:33N 50°35' E 000°26'1111.4
2015-Feb-27 16:33N 50°40' E 000°41'1211.8
2015-Feb-27 15:33N 50°47' E 000°57'1312.6
2015-Feb-27 14:33N 50°55' E 001°12'1413.7
2015-Feb-27 13:34N 51°04' E 001°28'1414.2
2015-Feb-27 12:33N 51°13' E 001°46'1312.8
2015-Feb-27 11:34N 51°24' E 001°58'1110.5
2015-Feb-27 10:33N 51°21' E 002°14'1211.2
2015-Feb-27 09:31N 51°23' E 002°33'1111.6
2015-Feb-27 08:34N 51°22' E 002°50'1413.8
2015-Feb-27 07:33N 51°24' E 003°12'1313.1
2015-Feb-27 06:33N 51°26' E 003°33'9 9.4
2015-Feb-27 05:34N 51°22' E 003°47'1010.1
2015-Feb-27 04:34N 51°24' E 004°02'10 9.7
2015-Feb-27 03:34N 51°21' E 004°17'1 0.6
2015-Feb-27 02:34N 51°21' E 004°18'2 1.8
2015-Feb-27 01:32N 51°19' E 004°20'0 0.0
2015-Feb-27 00:32N 51°19' E 004°20'0 0.0
2015-Feb-26 23:32N 51°19' E 004°20'0 0.0
2015-Feb-26 22:32N 51°19' E 004°20'0 0.0
2015-Feb-26 21:32N 51°19' E 004°20'0 0.0
2015-Feb-26 20:32N 51°19' E 004°20'0 0.0
2015-Feb-26 19:32N 51°19' E 004°20'0 0.0
2015-Feb-26 18:32N 51°19' E 004°20'0 0.0
2015-Feb-26 17:32N 51°19' E 004°20'0 0.0
2015-Feb-26 16:29N 51°19' E 004°20'0 0.1
2015-Feb-26 15:32N 51°19' E 004°20'0 0.1
2015-Feb-26 14:32N 51°19' E 004°20'0 0.0
2015-Feb-26 13:32N 51°19' E 004°20'0 0.0
2015-Feb-26 12:32N 51°19' E 004°20'0 0.0
2015-Feb-26 11:32N 51°19' E 004°20'0 0.0
2015-Feb-26 10:32N 51°19' E 004°20'0 0.0
2015-Feb-26 09:32N 51°19' E 004°20'0 0.0
2015-Feb-26 08:32N 51°19' E 004°20'0 0.0
2015-Feb-26 07:32N 51°19' E 004°20'0 0.0
2015-Feb-26 06:32N 51°19' E 004°20'0 0.0
2015-Feb-26 05:26N 51°19' E 004°20'0 0.1
2015-Feb-26 04:33N 51°20' E 004°20'2 2.1
2015-Feb-26 03:34N 51°21' E 004°17'6 6.4
2015-Feb-26 02:33N 51°22' E 004°07'9 9.1
2015-Feb-26 01:33N 51°21' E 003°53'1211.6
2015-Feb-26 00:33N 51°26' E 003°36'1312.6
2015-Feb-25 23:33N 51°24' E 003°16'1413.9
2015-Feb-25 22:33N 51°22' E 002°54'1010.4
2015-Feb-25 21:33N 51°22' E 002°37'8 8.0
2015-Feb-25 20:33N 51°21' E 002°24'1313.2
2015-Feb-25 19:33N 51°14' E 002°06'1616.4
2015-Feb-25 18:33N 51°04' E 001°46'1414.0
2015-Feb-25 17:33N 51°03' E 002°08'3 2.9
2015-Feb-25 16:32N 51°01' E 002°11'0 0.0
2015-Feb-25 15:08N 51°01' E 002°11'0 0.0
2015-Feb-25 14:32N 51°01' E 002°11'0 0.0
2015-Feb-25 13:32N 51°01' E 002°11'0 0.0
2015-Feb-25 12:32N 51°01' E 002°11'0 0.0
2015-Feb-25 11:32N 51°01' E 002°11'0 0.0
2015-Feb-25 10:29N 51°01' E 002°11'0 0.0
2015-Feb-25 09:20N 51°01' E 002°11'0 0.0
2015-Feb-25 08:33N 51°01' E 002°11'0 0.0
2015-Feb-25 07:33N 51°01' E 002°11'0 0.0
2015-Feb-25 06:32N 51°01' E 002°11'0 0.0
2015-Feb-25 05:32N 51°01' E 002°11'0 0.0
2015-Feb-25 04:32N 51°01' E 002°11'0 0.0
2015-Feb-25 03:26N 51°01' E 002°11'0 0.0
2015-Feb-25 02:17N 51°01' E 002°11'0 0.0
2015-Feb-25 01:32N 51°01' E 002°11'0 0.0
2015-Feb-25 00:32N 51°01' E 002°11'0 0.0
2015-Feb-24 23:33N 51°01' E 002°11'0 0.0
2015-Feb-24 22:32N 51°01' E 002°11'0 0.0
2015-Feb-24 21:32N 51°01' E 002°11'0 0.0
2015-Feb-24 20:32N 51°01' E 002°11'0 0.0
2015-Feb-24 19:32N 51°01' E 002°11'0 0.0
2015-Feb-24 18:29N 51°01' E 002°11'0 0.0
2015-Feb-24 17:32N 51°01' E 002°11'0 0.0
2015-Feb-24 16:30N 51°01' E 002°11'0 0.1
2015-Feb-24 15:33N 51°01' E 002°11'1313.2
2015-Feb-24 14:34N 51°02' E 001°50'1413.7
2015-Feb-24 13:34N 50°56' E 001°31'  
2015-Feb-20 05:32N 45°37' W 001°28'0 0.0
2015-Feb-20 02:29N 45°37' W 001°28'  
Track history (hours):
 
Tides and Currents Weather Stations Pressure Air Temp Water Temp Dewpoint Dewpoint Depression Visibility Wind Speed Wind Dir Waves Ship Positions

Jork Reliance

Last reported at 2015-Mar-01 19:34 UTC. Time now 2015-Mar-04 04:22 UTC.
Position N 49°40' W 000°35'.

Length 141 m; draft 6.8 m.

Type: Ship (hazmat cat A). MMSI: 305033000.

Date/timePositionNaut miles runAvg speedWind from/ knotsBaromVisibWave heightAir tempDewpointWater temp
2015-Mar-01 19:34N 49°40' W 000°35'1111.0
2015-Mar-01 18:34N 49°35' W 000°19'1111.2
2015-Mar-01 17:34N 49°32' W 000°03'9 9.3
2015-Mar-01 16:33N 49°28' E 000°10'0 0.0
2015-Mar-01 15:31N 49°28' E 000°10'0 0.0
2015-Mar-01 14:31N 49°28' E 000°10'0 0.0
2015-Mar-01 13:31N 49°28' E 000°10'0 0.0
2015-Mar-01 12:31N 49°28' E 000°10'0 0.0
2015-Mar-01 11:31N 49°28' E 000°10'0 0.0
2015-Mar-01 10:31N 49°28' E 000°10'0 0.0
2015-Mar-01 09:31N 49°28' E 000°10'0 0.0
2015-Mar-01 08:31N 49°28' E 000°10'0 0.0
2015-Mar-01 07:31N 49°28' E 000°10'0 0.0
2015-Mar-01 06:31N 49°28' E 000°10'0 0.0
2015-Mar-01 05:31N 49°28' E 000°10'0 0.0
2015-Mar-01 04:28N 49°28' E 000°10'0 0.0
2015-Mar-01 03:31N 49°28' E 000°10'0 0.0
2015-Mar-01 02:31N 49°28' E 000°10'0 0.0
2015-Mar-01 01:31N 49°28' E 000°10'0 0.0
2015-Mar-01 00:31N 49°28' E 000°10'0 0.0
2015-Feb-28 23:31N 49°28' E 000°10'0 0.0
2015-Feb-28 22:31N 49°28' E 000°10'0 0.0
2015-Feb-28 21:32N 49°28' E 000°10'3 2.6
2015-Feb-28 20:33N 49°28' E 000°06'1 1.2
2015-Feb-28 19:31N 49°28' E 000°08'0 0.0
2015-Feb-28 18:31N 49°28' E 000°08'0 0.0
2015-Feb-28 17:31N 49°28' E 000°08'0 0.0
2015-Feb-28 16:31N 49°28' E 000°08'0 0.0
2015-Feb-28 15:31N 49°28' E 000°08'0 0.0
2015-Feb-28 14:31N 49°28' E 000°08'0 0.0
2015-Feb-28 13:31N 49°28' E 000°08'0 0.0
2015-Feb-28 12:31N 49°28' E 000°08'0 0.0
2015-Feb-28 11:31N 49°28' E 000°08'0 0.0
2015-Feb-28 10:31N 49°28' E 000°08'0 0.0
2015-Feb-28 09:31N 49°28' E 000°08'0 0.0
2015-Feb-28 08:31N 49°28' E 000°08'0 0.0
2015-Feb-28 07:31N 49°28' E 000°08'0 0.0
2015-Feb-28 06:31N 49°28' E 000°08'0 0.0
2015-Feb-28 05:31N 49°28' E 000°08'0 0.0
2015-Feb-28 04:31N 49°28' E 000°08'0 0.0
2015-Feb-28 03:31N 49°28' E 000°08'7 7.3
2015-Feb-28 02:34N 49°30' W 000°02'1010.3
2015-Feb-28 01:33N 49°38' W 000°12'1111.4
2015-Feb-28 00:33N 49°50' W 000°12'37 7.0
2015-Feb-27 19:16N 50°26' W 000°03'1012.1
2015-Feb-27 18:25N 50°31' E 000°11'1011.7
2015-Feb-27 17:33N 50°35' E 000°26'1111.4
2015-Feb-27 16:33N 50°40' E 000°41'1211.8
2015-Feb-27 15:33N 50°47' E 000°57'1312.6
2015-Feb-27 14:33N 50°55' E 001°12'1413.7
2015-Feb-27 13:34N 51°04' E 001°28'1414.2
2015-Feb-27 12:33N 51°13' E 001°46'1312.8
2015-Feb-27 11:34N 51°24' E 001°58'1110.5
2015-Feb-27 10:33N 51°21' E 002°14'1211.2
2015-Feb-27 09:31N 51°23' E 002°33'1111.6
2015-Feb-27 08:34N 51°22' E 002°50'1413.8
2015-Feb-27 07:33N 51°24' E 003°12'1313.1
2015-Feb-27 06:33N 51°26' E 003°33'9 9.4
2015-Feb-27 05:34N 51°22' E 003°47'1010.1
2015-Feb-27 04:34N 51°24' E 004°02'10 9.7
2015-Feb-27 03:34N 51°21' E 004°17'1 0.6
2015-Feb-27 02:34N 51°21' E 004°18'2 1.8
2015-Feb-27 01:32N 51°19' E 004°20'0 0.0
2015-Feb-27 00:32N 51°19' E 004°20'0 0.0
2015-Feb-26 23:32N 51°19' E 004°20'0 0.0
2015-Feb-26 22:32N 51°19' E 004°20'0 0.0
2015-Feb-26 21:32N 51°19' E 004°20'0 0.0
2015-Feb-26 20:32N 51°19' E 004°20'0 0.0
2015-Feb-26 19:32N 51°19' E 004°20'0 0.0
2015-Feb-26 18:32N 51°19' E 004°20'0 0.0
2015-Feb-26 17:32N 51°19' E 004°20'0 0.0
2015-Feb-26 16:29N 51°19' E 004°20'0 0.1
2015-Feb-26 15:32N 51°19' E 004°20'0 0.1
2015-Feb-26 14:32N 51°19' E 004°20'0 0.0
2015-Feb-26 13:32N 51°19' E 004°20'0 0.0
2015-Feb-26 12:32N 51°19' E 004°20'0 0.0
2015-Feb-26 11:32N 51°19' E 004°20'0 0.0
2015-Feb-26 10:32N 51°19' E 004°20'0 0.0
2015-Feb-26 09:32N 51°19' E 004°20'0 0.0
2015-Feb-26 08:32N 51°19' E 004°20'0 0.0
2015-Feb-26 07:32N 51°19' E 004°20'0 0.0
2015-Feb-26 06:32N 51°19' E 004°20'0 0.0
2015-Feb-26 05:26N 51°19' E 004°20'0 0.1
2015-Feb-26 04:33N 51°20' E 004°20'2 2.1
2015-Feb-26 03:34N 51°21' E 004°17'6 6.4
2015-Feb-26 02:33N 51°22' E 004°07'9 9.1
2015-Feb-26 01:33N 51°21' E 003°53'1211.6
2015-Feb-26 00:33N 51°26' E 003°36'1312.6
2015-Feb-25 23:33N 51°24' E 003°16'1413.9
2015-Feb-25 22:33N 51°22' E 002°54'1010.4
2015-Feb-25 21:33N 51°22' E 002°37'8 8.0
2015-Feb-25 20:33N 51°21' E 002°24'1313.2
2015-Feb-25 19:33N 51°14' E 002°06'1616.4
2015-Feb-25 18:33N 51°04' E 001°46'1414.0
2015-Feb-25 17:33N 51°03' E 002°08'3 2.9
2015-Feb-25 16:32N 51°01' E 002°11'0 0.0
2015-Feb-25 15:08N 51°01' E 002°11'0 0.0
2015-Feb-25 14:32N 51°01' E 002°11'0 0.0
2015-Feb-25 13:32N 51°01' E 002°11'0 0.0
2015-Feb-25 12:32N 51°01' E 002°11'0 0.0
2015-Feb-25 11:32N 51°01' E 002°11'0 0.0
2015-Feb-25 10:29N 51°01' E 002°11'0 0.0
2015-Feb-25 09:20N 51°01' E 002°11'0 0.0
2015-Feb-25 08:33N 51°01' E 002°11'0 0.0
2015-Feb-25 07:33N 51°01' E 002°11'0 0.0
2015-Feb-25 06:32N 51°01' E 002°11'0 0.0
2015-Feb-25 05:32N 51°01' E 002°11'0 0.0
2015-Feb-25 04:32N 51°01' E 002°11'0 0.0
2015-Feb-25 03:26N 51°01' E 002°11'0 0.0
2015-Feb-25 02:17N 51°01' E 002°11'0 0.0
2015-Feb-25 01:32N 51°01' E 002°11'0 0.0
2015-Feb-25 00:32N 51°01' E 002°11'0 0.0
2015-Feb-24 23:33N 51°01' E 002°11'0 0.0
2015-Feb-24 22:32N 51°01' E 002°11'0 0.0
2015-Feb-24 21:32N 51°01' E 002°11'0 0.0
2015-Feb-24 20:32N 51°01' E 002°11'0 0.0
2015-Feb-24 19:32N 51°01' E 002°11'0 0.0
2015-Feb-24 18:29N 51°01' E 002°11'0 0.0
2015-Feb-24 17:32N 51°01' E 002°11'0 0.0
2015-Feb-24 16:30N 51°01' E 002°11'0 0.1
2015-Feb-24 15:33N 51°01' E 002°11'1313.2
2015-Feb-24 14:34N 51°02' E 001°50'1413.7
2015-Feb-24 13:34N 50°56' E 001°31'  
2015-Feb-20 05:32N 45°37' W 001°28'0 0.0
2015-Feb-20 02:29N 45°37' W 001°28'  

Dump ship's entire track history